Terminal Aerodrome Forecast
Issued by NWS

Home | Current Version | Previous Version | Text Only | Print | Product List | Glossary On
Versions: 1 2 3 4 5 6 7 8 9 10 11 12 13 14
000
FTUS43 KFGF 290733 AAB
TAFDVL
TAF AMD
KDVL 290733Z 2908/3006 VRB03KT 2SM BR SCT005
      TEMPO 2908/2912 1/2SM FG BKN003
     FM291300 20005KT 5SM HZ SCT250
     FM291700 17009KT P6SM SCT250
      AMD LTD TO CLD VIS AND WIND=

USA.gov is the U.S. government's official web portal to all federal, state and local government web resources and services.